Time;durP1;ratioP1;P1;durP2;ratioP2;P2;SDS_P1;SDS_P2;PMS_P1;PMS_P2;Temp;Humidity;BMP_temperature;BMP_pressure;BME280_temperature;BME280_humidity;BME280_pressure;Samples;Min_cycle;Max_cycle;Signal;HPM_P1;HPM_P2
2022/07/28 00:00:24;;;;;;;2.55;0.90;;;15.80;63.60;;;;;;5071405;28;20063;-74
2022/07/28 00:02:50;;;;;;;2.10;0.73;;;15.80;63.60;;;;;;5071549;28;20039;-74
2022/07/28 00:05:15;;;;;;;2.55;0.57;;;15.80;63.70;;;;;;5072995;28;20033;-75
2022/07/28 00:07:41;;;;;;;1.83;0.90;;;15.80;63.70;;;;;;5072582;28;20020;-75
2022/07/28 00:10:07;;;;;;;1.65;0.77;;;15.80;63.70;;;;;;5072851;28;20029;-75
2022/07/28 00:12:33;;;;;;;1.00;0.60;;;15.80;63.70;;;;;;5088348;28;20028;-74
2022/07/28 00:14:59;;;;;;;2.72;0.88;;;15.80;63.70;;;;;;5072955;28;20522;-75
2022/07/28 00:17:25;;;;;;;1.85;1.00;;;15.70;63.70;;;;;;5070861;28;20036;-74
2022/07/28 00:19:50;;;;;;;3.60;1.02;;;15.70;63.80;;;;;;5071287;28;20430;-75
2022/07/28 00:22:16;;;;;;;4.90;1.00;;;15.60;63.90;;;;;;5072813;28;20029;-74
2022/07/28 00:24:42;;;;;;;2.97;0.80;;;15.70;64.00;;;;;;5073079;28;20027;-75
2022/07/28 00:27:08;;;;;;;1.63;0.80;;;15.60;64.10;;;;;;5071529;28;20024;-75
2022/07/28 00:29:34;;;;;;;2.67;0.82;;;15.60;64.10;;;;;;5071555;28;20078;-74
2022/07/28 00:31:59;;;;;;;2.33;0.68;;;15.60;64.20;;;;;;5073352;28;20536;-74
2022/07/28 00:34:25;;;;;;;1.50;0.88;;;15.60;64.20;;;;;;5071587;28;20137;-74
2022/07/28 00:36:51;;;;;;;3.22;0.88;;;15.50;64.30;;;;;;5071679;28;20476;-74
2022/07/28 00:39:16;;;;;;;0.93;0.70;;;15.50;64.50;;;;;;5071565;28;20071;-74
2022/07/28 00:41:42;;;;;;;2.33;0.90;;;15.50;64.50;;;;;;5072877;28;20090;-74
2022/07/28 00:44:08;;;;;;;3.70;1.08;;;15.40;64.50;;;;;;5073045;28;20025;-74
2022/07/28 00:46:34;;;;;;;1.30;0.70;;;15.50;64.60;;;;;;5074458;28;20031;-75
2022/07/28 00:49:00;;;;;;;2.63;0.98;;;15.40;64.70;;;;;;5090766;28;20016;-73
2022/07/28 00:51:26;;;;;;;3.08;0.80;;;15.40;64.80;;;;;;5073279;28;20108;-74
2022/07/28 00:53:53;;;;;;;2.72;0.80;;;15.40;64.90;;;;;;5074921;28;20025;-75
2022/07/28 00:56:19;;;;;;;1.38;0.70;;;15.40;64.90;;;;;;5077538;28;20032;-75
2022/07/28 00:58:46;;;;;;;1.73;0.93;;;15.40;64.90;;;;;;5078203;28;20021;-74
2022/07/28 01:01:18;;;;;;;1.65;0.70;;;15.40;64.90;;;;;;5077863;28;20020;-74
2022/07/28 01:03:48;;;;;;;2.58;0.85;;;15.40;65.00;;;;;;5078233;28;20024;-74
2022/07/28 01:06:44;;;;;;;2.47;1.00;;;15.40;65.10;;;;;;5093287;28;20341;-74
2022/07/28 01:09:23;;;;;;;2.97;0.80;;;15.40;65.10;;;;;;5077510;28;20101;-75
2022/07/28 01:12:15;;;;;;;0.75;0.57;;;15.40;65.10;;;;;;5077375;28;20443;-73
2022/07/28 01:14:51;;;;;;;1.90;0.75;;;15.40;65.10;;;;;;5059160;28;20029;-74
2022/07/28 01:17:31;;;;;;;2.15;0.77;;;15.40;65.10;;;;;;5075858;28;20032;-74
2022/07/28 01:20:06;;;;;;;1.85;0.73;;;15.40;65.10;;;;;;5075607;28;20407;-73
2022/07/28 01:22:37;;;;;;;3.08;1.08;;;15.30;65.20;;;;;;5075521;28;20430;-73
2022/07/28 01:25:48;;;;;;;2.38;0.98;;;15.30;65.30;;;;;;5092086;28;20025;-73
2022/07/28 01:28:25;;;;;;;2.15;0.80;;;15.30;65.30;;;;;;5069724;28;20038;-74
2022/07/28 01:30:57;;;;;;;4.30;0.70;;;15.30;65.30;;;;;;5074890;28;20063;-74
2022/07/28 01:33:27;;;;;;;;;;;15.30;65.40;;;;;;5092133;28;20057;-74
2022/07/28 01:36:00;;;;;;;2.70;0.63;;;15.20;65.40;;;;;;5076305;28;19908;-73
2022/07/28 01:38:27;;;;;;;0.88;0.70;;;15.10;65.50;;;;;;5077123;28;20029;-74
2022/07/28 01:40:55;;;;;;;3.13;0.70;;;15.10;65.50;;;;;;5075625;28;20039;-74
2022/07/28 01:43:23;;;;;;;3.08;0.80;;;15.10;65.70;;;;;;5092067;28;20024;-75
2022/07/28 01:45:50;;;;;;;0.85;0.73;;;15.00;65.70;;;;;;5076525;28;20032;-74
2022/07/28 01:48:17;;;;;;;1.58;0.80;;;15.00;65.80;;;;;;5074995;28;20029;-74
2022/07/28 01:50:45;;;;;;;2.83;0.90;;;15.00;65.90;;;;;;5092322;28;20059;-75
2022/07/28 01:53:14;;;;;;;2.03;0.75;;;15.00;66.00;;;;;;5076703;28;20032;-75
2022/07/28 01:55:42;;;;;;;1.15;0.68;;;15.00;66.10;;;;;;5074910;28;20510;-76
2022/07/28 01:58:10;;;;;;;3.13;0.75;;;15.00;66.10;;;;;;5090936;28;20040;-75
2022/07/28 02:00:38;;;;;;;2.20;1.02;;;15.00;66.20;;;;;;5091191;28;20025;-74
2022/07/28 02:03:05;;;;;;;2.75;0.68;;;14.90;66.20;;;;;;5075657;28;20369;-75
2022/07/28 02:05:34;;;;;;;2.65;0.70;;;14.90;66.20;;;;;;5075636;28;20025;-73
2022/07/28 02:08:01;;;;;;;2.60;0.60;;;14.90;66.30;;;;;;5091135;28;20020;-74
2022/07/28 02:10:28;;;;;;;1.92;0.57;;;14.80;66.30;;;;;;5075448;28;20042;-74
2022/07/28 02:12:56;;;;;;;1.60;0.70;;;14.80;67.10;;;;;;5091064;28;20021;-75
2022/07/28 02:15:25;;;;;;;2.42;0.88;;;14.80;66.50;;;;;;5075401;28;20086;-75
2022/07/28 02:17:51;;;;;;;2.42;0.80;;;14.80;66.60;;;;;;5074182;28;20086;-74
2022/07/28 02:20:18;;;;;;;2.03;0.80;;;14.70;66.60;;;;;;5075323;28;20020;-74
2022/07/28 02:22:46;;;;;;;2.42;1.00;;;14.70;66.70;;;;;;5090806;28;20495;-74
2022/07/28 02:25:12;;;;;;;1.33;0.70;;;14.70;66.90;;;;;;5090997;28;20480;-75
2022/07/28 02:27:41;;;;;;;2.75;0.80;;;14.60;66.90;;;;;;5075088;28;20218;-75
2022/07/28 02:30:17;;;;;;;3.75;0.90;;;14.60;67.00;;;;;;5074922;28;20105;-74
2022/07/28 02:32:58;;;;;;;1.05;0.77;;;14.60;67.00;;;;;;5090817;28;20134;-75
2022/07/28 02:35:36;;;;;;;1.65;0.85;;;14.60;67.10;;;;;;5074697;28;20045;-75
2022/07/28 02:38:10;;;;;;;2.42;0.68;;;14.60;67.10;;;;;;5090415;28;20025;-74
2022/07/28 02:40:39;;;;;;;1.38;0.57;;;14.50;67.10;;;;;;5073411;28;20068;-74
2022/07/28 02:43:09;;;;;;;1.13;0.73;;;14.50;67.20;;;;;;5090237;28;20033;-74
2022/07/28 02:45:39;;;;;;;2.63;0.70;;;14.50;67.30;;;;;;5090338;28;20029;-74
2022/07/28 02:48:09;;;;;;;2.05;0.70;;;14.50;67.40;;;;;;5090638;28;20021;-75
2022/07/28 02:50:35;;;;;;;3.38;1.00;;;14.50;67.40;;;;;;5090317;28;20095;-73
2022/07/28 02:53:03;;;;;;;2.38;0.77;;;14.40;67.40;;;;;;5073373;28;20121;-74
2022/07/28 02:55:30;;;;;;;1.63;0.80;;;14.40;67.50;;;;;;5073354;28;20449;-75
2022/07/28 02:57:57;;;;;;;2.92;1.00;;;14.40;67.60;;;;;;5075073;28;20044;-75
2022/07/28 03:00:24;;;;;;;2.28;0.80;;;14.40;67.60;;;;;;5074677;28;20488;-74
2022/07/28 03:02:53;;;;;;;1.73;1.02;;;14.40;67.60;;;;;;5074929;28;20425;-75
2022/07/28 03:05:19;;;;;;;2.90;0.77;;;14.40;67.60;;;;;;5089539;28;20514;-75
2022/07/28 03:07:45;;;;;;;2.83;1.27;;;14.40;68.20;;;;;;5090094;28;20020;-75
2022/07/28 03:10:25;;;;;;;1.83;0.82;;;14.40;67.60;;;;;;5073178;28;20032;-73
2022/07/28 03:12:51;;;;;;;1.77;0.77;;;14.40;67.60;;;;;;5074552;28;20555;-75
2022/07/28 03:15:17;;;;;;;2.70;0.80;;;14.40;67.60;;;;;;5089948;28;20024;-75
2022/07/28 03:17:42;;;;;;;1.55;0.82;;;14.40;67.60;;;;;;5072346;28;20028;-74
2022/07/28 03:20:10;;;;;;;2.28;0.90;;;14.40;67.60;;;;;;5072807;28;20032;-74
2022/07/28 03:22:35;;;;;;;1.92;0.75;;;14.40;67.60;;;;;;5072589;28;20484;-75
2022/07/28 03:25:05;;;;;;;0.88;0.63;;;14.40;67.60;;;;;;5073981;28;20074;-75
2022/07/28 03:27:35;;;;;;;1.73;0.60;;;14.40;67.60;;;;;;5073910;28;20391;-76
2022/07/28 03:30:11;;;;;;;2.35;1.08;;;14.40;67.60;;;;;;5072996;28;20383;-75
2022/07/28 03:32:41;;;;;;;2.17;0.80;;;14.30;67.50;;;;;;5073452;28;20056;-75
2022/07/28 03:35:08;;;;;;;1.38;0.68;;;14.40;67.60;;;;;;5086318;28;20112;-74
2022/07/28 03:37:48;;;;;;;2.05;0.70;;;14.40;67.60;;;;;;5073760;28;20048;-74
2022/07/28 03:40:15;;;;;;;1.73;0.80;;;14.30;67.50;;;;;;5072373;28;20047;-75
2022/07/28 03:46:03;;;;;;;1.70;0.68;;;14.40;67.60;;;;;;5074478;28;20089;-73
2022/07/28 03:48:30;;;;;;;1.83;0.60;;;14.30;67.50;;;;;;5086216;28;20140;-74
2022/07/28 03:50:56;;;;;;;1.05;0.50;;;14.30;67.50;;;;;;5072207;28;20369;-74
2022/07/28 03:53:25;;;;;;;1.90;0.68;;;14.30;67.60;;;;;;5089039;28;20135;-74
2022/07/28 03:55:51;;;;;;;1.17;0.70;;;14.30;67.60;;;;;;5073538;28;20028;-73
2022/07/28 03:58:23;;;;;;;1.50;0.77;;;14.30;67.60;;;;;;5071925;28;20119;-74
2022/07/28 04:00:49;;;;;;;4.15;0.68;;;14.30;67.70;;;;;;5073279;28;20028;-74
2022/07/28 04:03:17;;;;;;;2.38;0.90;;;14.30;67.70;;;;;;5071716;28;20055;-73
2022/07/28 04:05:43;;;;;;;2.05;0.85;;;14.30;67.70;;;;;;5073083;28;20033;-74
2022/07/28 04:08:09;;;;;;;1.63;0.70;;;14.30;67.70;;;;;;5088743;28;20031;-73
2022/07/28 04:10:35;;;;;;;1.83;0.90;;;14.30;67.70;;;;;;5073203;28;20487;-74
2022/07/28 04:13:01;;;;;;;2.72;0.80;;;14.30;67.80;;;;;;5089275;28;20057;-74
2022/07/28 04:15:27;;;;;;;2.20;0.80;;;14.30;67.80;;;;;;5071663;28;20115;-75
2022/07/28 04:17:54;;;;;;;3.22;1.13;;;14.30;67.80;;;;;;5073135;28;20126;-74
2022/07/28 04:20:21;;;;;;;3.33;0.93;;;14.30;68.50;;;;;;5072820;28;20032;-74
2022/07/28 04:22:48;;;;;;;2.85;0.80;;;14.40;67.90;;;;;;5072799;28;20040;-74
2022/07/28 04:25:15;;;;;;;0.75;0.70;;;14.40;67.90;;;;;;5073261;28;20064;-74
2022/07/28 04:27:41;;;;;;;2.65;1.00;;;14.40;67.90;;;;;;5073159;28;20495;-75
2022/07/28 04:30:12;;;;;;;3.40;0.98;;;14.40;67.90;;;;;;5087354;28;20025;-74
2022/07/28 04:32:38;;;;;;;2.95;0.93;;;14.40;67.90;;;;;;5072604;28;20419;-74
2022/07/28 04:35:05;;;;;;;3.10;0.95;;;14.40;68.00;;;;;;5087944;28;20088;-74
2022/07/28 04:37:31;;;;;;;2.97;0.95;;;14.50;68.00;;;;;;5072606;28;20079;-73
2022/07/28 04:39:56;;;;;;;3.95;1.00;;;14.50;68.00;;;;;;5072897;28;20060;-74
2022/07/28 04:42:22;;;;;;;3.58;0.70;;;14.50;68.00;;;;;;5071080;28;20036;-74
2022/07/28 04:44:48;;;;;;;3.33;0.80;;;14.50;68.00;;;;;;5071191;28;20078;-74
2022/07/28 04:47:13;;;;;;;2.17;0.80;;;14.60;68.00;;;;;;5071140;28;20031;-74
2022/07/28 04:49:41;;;;;;;2.28;0.90;;;14.60;68.00;;;;;;5070942;28;20333;-74
2022/07/28 04:52:09;;;;;;;4.28;0.93;;;14.60;68.00;;;;;;5088245;28;20585;-73
2022/07/28 04:54:36;;;;;;;1.38;0.80;;;14.60;68.00;;;;;;5072459;28;20029;-73
2022/07/28 04:57:02;;;;;;;3.22;0.82;;;14.60;68.00;;;;;;5071150;28;20357;-74
2022/07/28 04:59:28;;;;;;;2.47;0.85;;;14.70;68.00;;;;;;5072626;28;20032;-73
2022/07/28 05:01:56;;;;;;;1.35;0.70;;;14.70;68.10;;;;;;5072877;28;20035;-74
2022/07/28 05:04:24;;;;;;;2.75;0.70;;;14.70;68.10;;;;;;5071258;28;20610;-74
2022/07/28 05:06:50;;;;;;;2.97;0.90;;;14.70;68.10;;;;;;5088138;28;20044;-74
2022/07/28 05:09:16;;;;;;;2.75;0.80;;;14.70;68.00;;;;;;5072491;28;20109;-74
2022/07/28 05:11:42;;;;;;;4.32;1.58;;;14.80;68.00;;;;;;5088151;28;20503;-74
2022/07/28 05:14:08;;;;;;;4.13;1.00;;;14.80;67.80;;;;;;5071294;28;20024;-73
2022/07/28 05:16:34;;;;;;;1.00;0.50;;;14.90;67.80;;;;;;5072335;28;20024;-73
2022/07/28 05:19:00;;;;;;;3.65;0.80;;;14.90;67.70;;;;;;5072438;28;20359;-74
2022/07/28 05:21:26;;;;;;;2.50;0.80;;;15.00;67.70;;;;;;5072531;28;20448;-74
2022/07/28 05:23:51;;;;;;;2.22;0.95;;;15.00;67.60;;;;;;5087773;28;20048;-74
2022/07/28 05:26:17;;;;;;;2.95;0.98;;;15.10;67.60;;;;;;5070973;28;20028;-75
2022/07/28 05:28:43;;;;;;;1.85;0.70;;;15.10;67.50;;;;;;5072641;28;20024;-74
2022/07/28 05:31:09;;;;;;;1.88;0.90;;;15.10;67.40;;;;;;5072417;28;20032;-74
2022/07/28 05:33:35;;;;;;;2.53;0.70;;;15.20;67.40;;;;;;5070923;28;20123;-74
2022/07/28 05:36:01;;;;;;;1.80;0.55;;;15.20;67.30;;;;;;5087869;28;20035;-75
2022/07/28 05:38:29;;;;;;;2.03;0.60;;;15.20;67.30;;;;;;5087790;28;20115;-74
2022/07/28 05:44:16;;;;;;;4.15;0.70;;;15.30;67.20;;;;;;5076080;28;20078;-74
2022/07/28 05:46:42;;;;;;;1.95;0.80;;;15.30;67.00;;;;;;5074729;28;20021;-74
2022/07/28 05:49:08;;;;;;;2.17;0.70;;;15.40;67.10;;;;;;5075946;28;20476;-74
2022/07/28 05:51:33;;;;;;;3.55;0.80;;;15.40;67.10;;;;;;5074528;28;20021;-74
2022/07/28 05:53:59;;;;;;;1.88;0.60;;;15.40;67.00;;;;;;5076048;28;20031;-74
2022/07/28 05:56:25;;;;;;;1.48;0.55;;;15.50;67.00;;;;;;5076097;28;20440;-74
2022/07/28 05:58:51;;;;;;;2.47;0.80;;;15.50;67.00;;;;;;5074167;28;20369;-74
2022/07/28 06:01:18;;;;;;;2.30;0.70;;;15.50;66.90;;;;;;5075402;28;20085;-74
2022/07/28 06:03:43;;;;;;;2.17;0.70;;;15.50;66.80;;;;;;5073949;28;20032;-74
2022/07/28 06:06:10;;;;;;;2.40;0.82;;;15.60;66.90;;;;;;5073906;28;20025;-75
2022/07/28 06:08:35;;;;;;;1.15;0.70;;;15.60;66.90;;;;;;5075168;28;20384;-74
2022/07/28 06:11:08;;;;;;;1.88;0.70;;;15.70;66.90;;;;;;5074096;28;20029;-74
2022/07/28 06:13:35;;;;;;;2.40;0.70;;;15.70;66.80;;;;;;5090661;28;20021;-74
2022/07/28 06:16:00;;;;;;;1.40;0.60;;;15.70;66.80;;;;;;5090669;28;20123;-74
2022/07/28 06:18:26;;;;;;;1.67;0.80;;;15.70;66.70;;;;;;5073735;28;20514;-73
2022/07/28 06:20:52;;;;;;;1.35;0.80;;;15.80;66.70;;;;;;5075027;28;20035;-74
2022/07/28 06:23:20;;;;;;;2.75;0.73;;;15.80;66.60;;;;;;5074825;28;20024;-74
2022/07/28 06:25:46;;;;;;;2.58;0.75;;;15.80;66.60;;;;;;5073603;28;20059;-73
2022/07/28 06:28:12;;;;;;;1.23;0.80;;;15.80;66.50;;;;;;5073361;28;20020;-73
2022/07/28 06:30:38;;;;;;;2.78;0.73;;;15.90;66.50;;;;;;5090714;28;20081;-71
2022/07/28 06:33:06;;;;;;;1.23;0.60;;;16.00;66.50;;;;;;5076274;28;20033;-74
2022/07/28 06:35:33;;;;;;;2.38;0.70;;;16.00;66.40;;;;;;5094779;28;20039;-73
2022/07/28 06:37:58;;;;;;;1.58;0.73;;;16.10;66.40;;;;;;5076597;28;20028;-72
2022/07/28 06:40:24;;;;;;;4.38;0.60;;;16.20;66.30;;;;;;5094806;28;20392;-73
2022/07/28 06:42:50;;;;;;;1.60;0.60;;;16.30;66.30;;;;;;5094612;28;20032;-73
2022/07/28 06:45:17;;;;;;;2.78;0.77;;;16.30;66.10;;;;;;5077187;28;20417;-73
2022/07/28 06:47:43;;;;;;;3.10;0.60;;;16.40;65.90;;;;;;5094663;28;20111;-73
2022/07/28 06:50:09;;;;;;;1.98;0.68;;;16.50;65.70;;;;;;5093344;28;20392;-73
2022/07/28 06:52:36;;;;;;;2.50;0.77;;;16.60;65.60;;;;;;5093594;28;20024;-72
2022/07/28 06:55:03;;;;;;;2.35;0.80;;;16.60;65.50;;;;;;5094649;28;20032;-74
2022/07/28 06:57:30;;;;;;;2.17;0.75;;;16.70;65.30;;;;;;5094467;28;20525;-72
2022/07/28 06:59:56;;;;;;;0.77;0.60;;;16.70;65.10;;;;;;5076253;28;20028;-73
2022/07/28 07:02:22;;;;;;;3.03;0.50;;;16.70;65.00;;;;;;5076159;28;20402;-73
2022/07/28 07:04:50;;;;;;;2.60;0.65;;;16.80;64.90;;;;;;5076416;28;20093;-73
2022/07/28 07:07:16;;;;;;;2.33;0.70;;;16.90;64.60;;;;;;5076190;28;20031;-73
2022/07/28 07:09:41;;;;;;;1.33;0.70;;;17.00;64.40;;;;;;5094552;28;20446;-73
2022/07/28 07:12:07;;;;;;;1.17;0.50;;;17.10;63.80;;;;;;5094366;28;20111;-73
2022/07/28 07:14:33;;;;;;;2.03;0.55;;;17.10;63.50;;;;;;5094518;28;20028;-73
2022/07/28 07:20:48;;;;;;;1.70;0.60;;;17.40;63.20;;;;;;5095131;28;20035;-73
2022/07/28 07:23:13;;;;;;;2.00;0.90;;;17.50;62.70;;;;;;5094730;28;20032;-74
2022/07/28 07:25:39;;;;;;;2.20;0.60;;;17.50;62.40;;;;;;5076025;28;20023;-73
2022/07/28 07:31:27;;;;;;;2.65;0.60;;;17.70;61.70;;;;;;5094427;28;20085;-73
2022/07/28 07:33:53;;;;;;;2.25;0.60;;;17.90;61.40;;;;;;5072433;28;20137;-73
2022/07/28 07:36:18;;;;;;;2.65;0.65;;;18.00;61.30;;;;;;5072243;28;20028;-74
2022/07/28 07:38:44;;;;;;;2.17;0.50;;;18.10;61.00;;;;;;5072255;28;20111;-72
2022/07/28 07:41:11;;;;;;;2.25;0.73;;;18.10;60.50;;;;;;5073683;28;20475;-72
2022/07/28 07:43:36;;;;;;;1.95;0.90;;;18.10;60.20;;;;;;5072714;28;20396;-72
2022/07/28 07:46:02;;;;;;;1.67;0.60;;;18.20;60.90;;;;;;5073470;28;20028;-74
2022/07/28 07:48:28;;;;;;;1.65;0.75;;;18.20;60.00;;;;;;5071964;28;20031;-72
2022/07/28 07:50:53;;;;;;;1.33;0.60;;;18.30;59.90;;;;;;5073426;28;20059;-72
2022/07/28 07:53:19;;;;;;;0.95;0.70;;;18.40;59.70;;;;;;5073552;28;20496;-72
2022/07/28 07:55:45;;;;;;;1.98;0.73;;;18.40;59.50;;;;;;5071879;28;20025;-73
2022/07/28 07:58:10;;;;;;;1.75;0.55;;;18.40;59.20;;;;;;5071881;28;20024;-72
2022/07/28 08:00:36;;;;;;;2.45;0.70;;;18.50;59.30;;;;;;5073030;28;20480;-72
2022/07/28 08:03:01;;;;;;;2.28;1.00;;;18.50;58.70;;;;;;5073195;28;20024;-72
2022/07/28 08:05:27;;;;;;;1.15;0.70;;;18.50;58.50;;;;;;5073025;28;20024;-73
2022/07/28 08:07:53;;;;;;;0.70;0.40;;;18.50;58.50;;;;;;5071643;28;20395;-72
2022/07/28 08:10:18;;;;;;;0.70;0.57;;;18.50;58.40;;;;;;5072947;28;20127;-72
2022/07/28 08:12:44;;;;;;;1.83;0.95;;;18.60;58.50;;;;;;5072891;28;20077;-73
2022/07/28 08:15:10;;;;;;;0.85;0.60;;;18.60;58.40;;;;;;5071596;28;20036;-73
2022/07/28 08:17:36;;;;;;;1.58;0.68;;;18.60;58.30;;;;;;5072259;28;20028;-72
2022/07/28 08:20:03;;;;;;;2.67;0.70;;;18.50;57.70;;;;;;5073198;28;20032;-72
2022/07/28 08:25:50;;;;;;;1.77;0.60;;;18.50;57.80;;;;;;5073369;28;20073;-73
2022/07/28 08:28:16;;;;;;;1.73;0.60;;;18.50;57.70;;;;;;5071525;28;20424;-72
2022/07/28 08:30:43;;;;;;;1.92;0.60;;;18.50;57.20;;;;;;5072776;28;20468;-72
2022/07/28 08:33:08;;;;;;;2.00;1.00;;;18.50;57.30;;;;;;5074179;28;20119;-72
2022/07/28 08:35:34;;;;;;;1.23;0.47;;;18.60;57.10;;;;;;5074633;28;20440;-72
2022/07/28 08:38:01;;;;;;;4.68;0.70;;;18.70;57.00;;;;;;5074370;28;20485;-72
2022/07/28 08:40:28;;;;;;;0.85;0.38;;;18.70;56.90;;;;;;5091309;28;20024;-74
2022/07/28 08:42:57;;;;;;;0.43;0.40;;;18.80;56.80;;;;;;5091128;28;20043;-73
2022/07/28 08:45:25;;;;;;;1.50;0.60;;;18.90;56.70;;;;;;5093185;28;20024;-72
2022/07/28 08:47:54;;;;;;;1.05;0.40;;;18.90;56.10;;;;;;5091097;28;20039;-73
2022/07/28 08:50:23;;;;;;;0.85;0.60;;;19.00;56.00;;;;;;5074551;28;20487;-73
2022/07/28 08:52:50;;;;;;;1.00;0.45;;;19.00;55.60;;;;;;5091215;28;20501;-74
2022/07/28 08:55:22;;;;;;;2.30;0.43;;;19.00;55.50;;;;;;5092818;28;20372;-74
2022/07/28 08:57:48;;;;;;;0.52;0.50;;;19.00;55.50;;;;;;5074675;28;20070;-72
2022/07/28 09:00:17;;;;;;;2.03;0.60;;;19.10;55.60;;;;;;5091208;28;20150;-73
2022/07/28 09:02:45;;;;;;;1.55;0.70;;;19.10;54.80;;;;;;5092263;28;20040;-73
2022/07/28 09:05:10;;;;;;;1.23;0.40;;;19.10;54.60;;;;;;5074135;28;20032;-72
2022/07/28 09:07:40;;;;;;;1.40;0.52;;;19.10;54.60;;;;;;5074107;28;20024;-73
2022/07/28 09:10:11;;;;;;;2.38;0.65;;;19.10;54.30;;;;;;5092291;28;20420;-73
2022/07/28 09:12:38;;;;;;;0.70;0.50;;;19.10;54.30;;;;;;5074098;28;20036;-72
2022/07/28 09:15:06;;;;;;;1.27;0.50;;;19.10;54.50;;;;;;5090907;28;20084;-74
2022/07/28 09:17:33;;;;;;;1.90;0.60;;;19.20;54.50;;;;;;5078031;28;20028;-73
2022/07/28 09:19:59;;;;;;;1.30;0.50;;;19.20;54.10;;;;;;5096595;28;20489;-73
2022/07/28 09:22:25;;;;;;;0.93;0.60;;;19.30;54.10;;;;;;5096591;28;20110;-73
2022/07/28 09:24:51;;;;;;;1.30;0.60;;;19.40;54.00;;;;;;5095077;28;20180;-74
2022/07/28 09:27:16;;;;;;;1.50;0.50;;;19.50;53.80;;;;;;5078036;28;20024;-73
2022/07/28 09:29:56;;;;;;;1.13;0.55;;;19.50;53.70;;;;;;5096415;28;20336;-73
2022/07/28 09:32:22;;;;;;;1.73;0.50;;;19.60;53.50;;;;;;5096322;28;20028;-73
2022/07/28 09:34:49;;;;;;;0.50;0.32;;;19.60;53.50;;;;;;5094831;28;20046;-73
2022/07/28 09:37:18;;;;;;;1.75;0.50;;;19.70;53.40;;;;;;5096198;28;20028;-73
2022/07/28 09:39:45;;;;;;;2.28;0.68;;;19.80;53.00;;;;;;5078089;28;20104;-74
2022/07/28 09:42:10;;;;;;;1.05;0.50;;;19.80;52.50;;;;;;5095049;28;20499;-73
2022/07/28 09:44:36;;;;;;;2.38;0.50;;;19.80;52.60;;;;;;5077872;28;20041;-73
2022/07/28 09:47:22;;;;;;;1.50;0.50;;;19.90;52.50;;;;;;5078146;28;20051;-73
2022/07/28 09:49:49;;;;;;;0.98;0.60;;;20.00;52.50;;;;;;5095207;28;20550;-73
2022/07/28 09:52:30;;;;;;;0.52;0.40;;;20.10;52.50;;;;;;5077713;28;20023;-73
2022/07/28 09:55:08;;;;;;;1.48;0.63;;;20.20;52.10;;;;;;5095735;28;20479;-73
2022/07/28 09:57:35;;;;;;;1.05;0.40;;;20.40;52.00;;;;;;5094287;28;20127;-72
2022/07/28 10:00:05;;;;;;;0.90;0.40;;;20.50;51.80;;;;;;5095618;28;20439;-73
2022/07/28 10:02:31;;;;;;;1.20;0.70;;;20.60;51.60;;;;;;5094138;28;20016;-74
2022/07/28 10:05:01;;;;;;;1.55;0.50;;;20.70;51.50;;;;;;5077298;28;20046;-73
2022/07/28 10:07:28;;;;;;;1.17;0.57;;;20.80;51.30;;;;;;5077468;28;20016;-74
2022/07/28 10:09:57;;;;;;;1.00;0.60;;;20.90;51.20;;;;;;5095783;28;20027;-74
2022/07/28 10:12:24;;;;;;;0.80;0.50;;;20.90;51.00;;;;;;5095425;28;20020;-73
2022/07/28 10:14:52;;;;;;;0.38;0.38;;;21.00;51.10;;;;;;5095389;28;20127;-74
2022/07/28 10:17:29;;;;;;;0.75;0.47;;;21.10;50.90;;;;;;5095415;28;20020;-73
2022/07/28 10:20:00;;;;;;;1.02;0.57;;;21.30;50.50;;;;;;5094294;28;20483;-73
2022/07/28 10:22:34;;;;;;;0.63;0.30;;;21.30;50.20;;;;;;5094277;28;20016;-74
2022/07/28 10:25:14;;;;;;;3.65;0.50;;;21.30;50.00;;;;;;5094043;28;20061;-73
2022/07/28 10:27:41;;;;;;;1.85;0.55;;;21.40;49.90;;;;;;5092515;28;20024;-72
2022/07/28 10:30:08;;;;;;;1.83;0.60;;;21.40;49.80;;;;;;5076932;28;20023;-72
2022/07/28 10:32:42;;;;;;;0.80;0.50;;;21.40;49.10;;;;;;5095647;28;20088;-73
2022/07/28 10:35:15;;;;;;;0.73;0.50;;;21.40;48.70;;;;;;5076873;28;20024;-74
2022/07/28 10:38:03;;;;;;;1.55;0.60;;;21.40;49.00;;;;;;5095239;28;20031;-73
2022/07/28 10:40:33;;;;;;;0.85;0.60;;;21.50;49.20;;;;;;5095167;28;20024;-72
2022/07/28 10:42:59;;;;;;;0.98;0.60;;;21.60;49.00;;;;;;5093490;28;20118;-72
2022/07/28 10:45:26;;;;;;;0.80;0.50;;;21.60;48.70;;;;;;5076586;28;20107;-72
2022/07/28 10:47:53;;;;;;;0.90;0.32;;;21.70;48.70;;;;;;5093342;28;20112;-73
2022/07/28 10:50:20;;;;;;;0.52;0.40;;;21.70;48.70;;;;;;5093520;28;20483;-73
2022/07/28 10:52:49;;;;;;;0.85;0.50;;;21.80;48.70;;;;;;5076760;28;20024;-73
2022/07/28 10:55:51;;;;;;;0.50;0.40;;;21.90;48.60;;;;;;5076584;28;20432;-73
2022/07/28 10:58:51;;;;;;;2.88;0.45;;;22.00;48.30;;;;;;5093620;28;20035;-74
2022/07/28 11:01:43;;;;;;;0.55;0.40;;;22.10;48.30;;;;;;5094829;28;20552;-73
2022/07/28 11:05:02;;;;;;;1.13;0.40;;;22.10;47.00;;;;;;5091780;28;20032;-73
2022/07/28 11:07:38;;;;;;;0.85;0.75;;;22.00;47.30;;;;;;5050423;28;20036;-73
2022/07/28 11:10:17;;;;;;;1.33;0.60;;;22.00;47.40;;;;;;5093341;28;20112;-73
2022/07/28 11:12:54;;;;;;;0.32;0.32;;;22.00;47.20;;;;;;5094500;28;20028;-72
2022/07/28 11:19:08;;;;;;;0.63;0.40;;;22.10;47.20;;;;;;5094730;28;20104;-73
2022/07/28 11:21:34;;;;;;;0.40;0.30;;;22.10;47.40;;;;;;5094055;28;20515;-73
2022/07/28 11:23:59;;;;;;;1.30;0.47;;;22.10;47.10;;;;;;5094171;28;20035;-74
2022/07/28 11:26:33;;;;;;;0.93;0.55;;;22.20;47.20;;;;;;5076226;28;20027;-73
2022/07/28 11:28:59;;;;;;;1.23;0.25;;;22.20;47.10;;;;;;5094080;28;20070;-72
2022/07/28 11:31:43;;;;;;;1.55;0.50;;;22.20;47.10;;;;;;5093881;28;20024;-72
2022/07/28 11:34:16;;;;;;;0.77;0.30;;;22.30;47.20;;;;;;5075510;28;20043;-73
2022/07/28 11:37:08;;;;;;;0.73;0.40;;;22.40;47.10;;;;;;5075578;28;20463;-72
2022/07/28 11:39:37;;;;;;;0.83;0.50;;;22.50;47.00;;;;;;5091938;28;20024;-73
2022/07/28 11:42:25;;;;;;;1.10;0.50;;;22.50;47.00;;;;;;5093666;28;20299;-72
2022/07/28 11:44:52;;;;;;;1.55;0.50;;;22.70;46.80;;;;;;5093603;28;20089;-72
2022/07/28 11:47:23;;;;;;;1.02;0.55;;;22.70;46.80;;;;;;5093675;28;20044;-72
2022/07/28 11:50:10;;;;;;;0.70;0.50;;;22.80;46.80;;;;;;5075219;28;20454;-72
2022/07/28 11:52:37;;;;;;;0.40;0.38;;;22.70;46.60;;;;;;5075323;28;20071;-73
2022/07/28 11:55:04;;;;;;;1.83;0.70;;;22.70;46.80;;;;;;5092379;28;20116;-73
2022/07/28 11:57:39;;;;;;;1.25;0.70;;;22.80;46.80;;;;;;5092239;28;20024;-72
2022/07/28 12:00:05;;;;;;;2.00;0.50;;;22.80;46.20;;;;;;5093486;28;20471;-73
2022/07/28 12:02:33;;;;;;;1.10;0.70;;;22.80;46.00;;;;;;5093346;28;20467;-72
2022/07/28 12:05:02;;;;;;;2.03;0.55;;;22.80;46.20;;;;;;5075059;28;20027;-73
2022/07/28 12:07:50;;;;;;;4.25;0.85;;;22.80;46.00;;;;;;5091894;28;20540;-73
2022/07/28 12:10:22;;;;;;;1.70;0.60;;;22.70;45.00;;;;;;5093394;28;20020;-73
2022/07/28 12:12:52;;;;;;;0.98;0.60;;;22.70;45.60;;;;;;5074881;28;20119;-73
2022/07/28 12:15:19;;;;;;;2.55;0.80;;;22.80;45.80;;;;;;5093054;28;20028;-71
2022/07/28 12:17:45;;;;;;;1.55;0.63;;;22.90;45.80;;;;;;5091642;28;20020;-72
2022/07/28 12:20:12;;;;;;;1.13;0.38;;;23.00;45.70;;;;;;5074947;28;20016;-73
2022/07/28 12:22:38;;;;;;;1.30;0.60;;;23.10;45.70;;;;;;5074691;28;20126;-73
2022/07/28 12:25:04;;;;;;;0.50;0.40;;;23.20;45.50;;;;;;5092959;28;20507;-73
2022/07/28 12:27:29;;;;;;;1.50;0.40;;;23.40;45.30;;;;;;5074640;28;20020;-73
2022/07/28 12:30:01;;;;;;;1.77;0.40;;;23.40;45.00;;;;;;5092713;28;20020;-73
2022/07/28 12:32:34;;;;;;;1.05;0.57;;;23.50;45.00;;;;;;5074566;28;20430;-72
2022/07/28 12:35:03;;;;;;;1.33;0.60;;;23.60;44.80;;;;;;5088176;28;20037;-73
2022/07/28 12:37:29;;;;;;;1.00;0.50;;;23.60;44.80;;;;;;5088243;28;20036;-72
2022/07/28 12:39:54;;;;;;;1.70;0.45;;;23.50;44.30;;;;;;5072529;28;20031;-73
2022/07/28 12:42:20;;;;;;;0.52;0.47;;;23.60;44.60;;;;;;5071164;28;20021;-72
2022/07/28 12:44:47;;;;;;;1.63;0.50;;;23.60;44.60;;;;;;5072440;28;20082;-72
2022/07/28 12:47:16;;;;;;;2.63;0.43;;;23.70;44.60;;;;;;5072414;28;20032;-72
2022/07/28 12:49:43;;;;;;;0.40;0.30;;;23.90;44.30;;;;;;5072165;28;20454;-73
2022/07/28 12:52:16;;;;;;;1.60;0.50;;;24.00;44.20;;;;;;5071761;28;20384;-71
2022/07/28 12:54:42;;;;;;;2.33;0.50;;;24.20;43.90;;;;;;5087704;28;20020;-73
2022/07/28 12:57:08;;;;;;;1.25;0.50;;;24.40;44.50;;;;;;5071163;28;20093;-72
2022/07/28 12:59:35;;;;;;;1.80;0.60;;;24.50;43.80;;;;;;5072520;28;20466;-73
2022/07/28 13:02:01;;;;;;;2.60;0.57;;;24.70;43.60;;;;;;5087783;28;20021;-72
2022/07/28 13:04:43;;;;;;;0.82;0.45;;;24.90;43.40;;;;;;5088006;28;20071;-72
2022/07/28 13:07:13;;;;;;;2.58;0.50;;;25.10;43.10;;;;;;5072854;28;20123;-72
2022/07/28 13:09:44;;;;;;;1.35;0.63;;;25.20;43.20;;;;;;5071295;28;20028;-72
2022/07/28 13:12:31;;;;;;;1.05;0.60;;;25.30;42.90;;;;;;5072497;28;20025;-73
2022/07/28 13:15:00;;;;;;;1.92;0.63;;;25.40;42.80;;;;;;5072290;28;20032;-73
2022/07/28 13:17:30;;;;;;;0.68;0.50;;;25.50;42.40;;;;;;5071084;28;20170;-73